Kaami — C6VO9 — position and weather

sailwx.info

Track history (hours):
 
Tides and Currents Weather Stations Pressure Air Temp Water Temp Dewpoint Dewpoint Depression Visibility Wind Speed Wind Dir Waves Ship Positions

Kaami

Last reported at 2014-Dec-22 08:33 UTC. Time now 2014-Dec-22 09:10 UTC.
Position N 67°17' E 014°23'.

Length 90 m; draft 3.4 m.

Type: Cargo ship. MMSI: 308542000.

Date/timePositionNaut miles runAvg speedWind from/ knotsBaromVisibWave heightAir tempDewpointWater temp
2014-Dec-22 08:33N 67°17' E 014°23'5 5.1
2014-Dec-22 07:33N 67°15' E 014°10'9 8.8
2014-Dec-22 06:33N 67°13' E 013°48'11 9.9
2014-Dec-22 05:25N 67°09' E 013°21'4610.6
2014-Dec-22 01:06N 66°38' E 011°57'610.9
2014-Dec-22 00:33N 66°33' E 011°49'  
2014-Dec-19 19:17N 63°03' E 007°39'0 0.0
2014-Dec-19 17:26N 63°03' E 007°39'0 0.0
2014-Dec-19 14:13N 63°03' E 007°39'0 0.0
2014-Dec-19 12:33N 63°03' E 007°39'  
2014-Dec-15 06:32N 57°47' W 002°00'5 4.8
2014-Dec-15 05:33N 57°44' W 001°53'6 6.0
2014-Dec-15 04:33N 57°39' W 001°47'7 7.3
2014-Dec-15 03:33N 57°32' W 001°42'73 8.9
2014-Dec-14 19:24N 56°25' W 002°31'7 8.3
2014-Dec-14 18:33N 56°18' W 002°30'8 7.8
2014-Dec-14 17:33N 56°10' W 002°27'7 7.4
2014-Dec-14 16:33N 56°03' W 002°23'8 7.9
2014-Dec-14 15:33N 55°58' W 002°12'9 8.0
2014-Dec-14 14:28N 55°52' W 002°01'61 8.4
2014-Dec-14 07:09N 54°56' W 001°18'5 9.1
2014-Dec-14 06:33N 54°51' W 001°16'9 9.4
2014-Dec-14 05:33N 54°43' W 001°05'1010.4
2014-Dec-14 04:33N 54°38' W 000°50'1510.9
2014-Dec-14 03:12N 54°28' W 000°31'711.1
2014-Dec-14 02:33N 54°22' W 000°24'1110.9
2014-Dec-14 01:33N 54°14' W 000°13'1010.0
2014-Dec-14 00:33N 54°05' W 000°03'1110.8
2014-Dec-13 23:33N 53°55' W 000°05'1010.0
2014-Dec-13 22:33N 53°46' E 000°04'9 8.5
2014-Dec-13 21:33N 53°41' E 000°15'6 5.6
2014-Dec-13 20:33N 53°35' E 000°19'8 7.8
2014-Dec-13 19:33N 53°34' E 000°06'9 8.6
2014-Dec-13 18:33N 53°37' W 000°07'8 8.3
2014-Dec-13 17:33N 53°44' W 000°15'1 0.8
2014-Dec-13 16:29N 53°45' W 000°16'0 0.0
2014-Dec-13 15:32N 53°45' W 000°16'0 0.0
2014-Dec-13 14:32N 53°45' W 000°16'0 0.0
2014-Dec-13 13:29N 53°45' W 000°16'0 0.0
2014-Dec-13 12:32N 53°45' W 000°16'0 0.0
2014-Dec-13 11:32N 53°45' W 000°16'0 0.0
2014-Dec-13 10:32N 53°45' W 000°16'0 0.0
2014-Dec-13 09:32N 53°45' W 000°16'0 0.0
2014-Dec-13 08:32N 53°45' W 000°16'0 0.0
2014-Dec-13 07:32N 53°45' W 000°16'0 0.0
2014-Dec-13 06:32N 53°45' W 000°16'0 0.0
2014-Dec-13 05:32N 53°45' W 000°16'0 0.0
2014-Dec-13 04:32N 53°45' W 000°16'0 0.0
2014-Dec-13 03:32N 53°45' W 000°16'0 0.0
2014-Dec-13 02:32N 53°45' W 000°16'0 0.0
2014-Dec-13 01:32N 53°45' W 000°16'0 0.0
2014-Dec-13 00:29N 53°45' W 000°16'0 0.0
2014-Dec-12 23:29N 53°45' W 000°16'0 0.0
2014-Dec-12 22:20N 53°45' W 000°16'0 0.0
2014-Dec-12 21:11N 53°45' W 000°16'0 0.0
2014-Dec-12 20:29N 53°45' W 000°16'0 0.0
2014-Dec-12 19:32N 53°45' W 000°16'0 0.0
2014-Dec-12 18:26N 53°45' W 000°16'0 0.0
2014-Dec-12 17:23N 53°45' W 000°16'0 0.0
2014-Dec-12 16:32N 53°45' W 000°16'0 0.0
2014-Dec-12 15:32N 53°45' W 000°16'0 0.0
2014-Dec-12 14:32N 53°45' W 000°16'0 0.0
2014-Dec-12 13:32N 53°45' W 000°16'0 0.0
2014-Dec-12 12:29N 53°45' W 000°16'0 0.0
2014-Dec-12 11:32N 53°45' W 000°16'0 0.0
2014-Dec-12 10:32N 53°45' W 000°16'0 0.0
2014-Dec-12 09:32N 53°45' W 000°16'  
Track history (hours):
 
Tides and Currents Weather Stations Pressure Air Temp Water Temp Dewpoint Dewpoint Depression Visibility Wind Speed Wind Dir Waves Ship Positions

Kaami

Last reported at 2014-Dec-22 08:33 UTC. Time now 2014-Dec-22 09:10 UTC.
Position N 67°17' E 014°23'.

Length 90 m; draft 3.4 m.

Type: Cargo ship. MMSI: 308542000.

Date/timePositionNaut miles runAvg speedWind from/ knotsBaromVisibWave heightAir tempDewpointWater temp
2014-Dec-22 08:33N 67°17' E 014°23'5 5.1
2014-Dec-22 07:33N 67°15' E 014°10'9 8.8
2014-Dec-22 06:33N 67°13' E 013°48'11 9.9
2014-Dec-22 05:25N 67°09' E 013°21'4610.6
2014-Dec-22 01:06N 66°38' E 011°57'610.9
2014-Dec-22 00:33N 66°33' E 011°49'  
2014-Dec-19 19:17N 63°03' E 007°39'0 0.0
2014-Dec-19 17:26N 63°03' E 007°39'0 0.0
2014-Dec-19 14:13N 63°03' E 007°39'0 0.0
2014-Dec-19 12:33N 63°03' E 007°39'  
2014-Dec-15 06:32N 57°47' W 002°00'5 4.8
2014-Dec-15 05:33N 57°44' W 001°53'6 6.0
2014-Dec-15 04:33N 57°39' W 001°47'7 7.3
2014-Dec-15 03:33N 57°32' W 001°42'73 8.9
2014-Dec-14 19:24N 56°25' W 002°31'7 8.3
2014-Dec-14 18:33N 56°18' W 002°30'8 7.8
2014-Dec-14 17:33N 56°10' W 002°27'7 7.4
2014-Dec-14 16:33N 56°03' W 002°23'8 7.9
2014-Dec-14 15:33N 55°58' W 002°12'9 8.0
2014-Dec-14 14:28N 55°52' W 002°01'61 8.4
2014-Dec-14 07:09N 54°56' W 001°18'5 9.1
2014-Dec-14 06:33N 54°51' W 001°16'9 9.4
2014-Dec-14 05:33N 54°43' W 001°05'1010.4
2014-Dec-14 04:33N 54°38' W 000°50'1510.9
2014-Dec-14 03:12N 54°28' W 000°31'711.1
2014-Dec-14 02:33N 54°22' W 000°24'1110.9
2014-Dec-14 01:33N 54°14' W 000°13'1010.0
2014-Dec-14 00:33N 54°05' W 000°03'1110.8
2014-Dec-13 23:33N 53°55' W 000°05'1010.0
2014-Dec-13 22:33N 53°46' E 000°04'9 8.5
2014-Dec-13 21:33N 53°41' E 000°15'6 5.6
2014-Dec-13 20:33N 53°35' E 000°19'8 7.8
2014-Dec-13 19:33N 53°34' E 000°06'9 8.6
2014-Dec-13 18:33N 53°37' W 000°07'8 8.3
2014-Dec-13 17:33N 53°44' W 000°15'1 0.8
2014-Dec-13 16:29N 53°45' W 000°16'0 0.0
2014-Dec-13 15:32N 53°45' W 000°16'0 0.0
2014-Dec-13 14:32N 53°45' W 000°16'0 0.0
2014-Dec-13 13:29N 53°45' W 000°16'0 0.0
2014-Dec-13 12:32N 53°45' W 000°16'0 0.0
2014-Dec-13 11:32N 53°45' W 000°16'0 0.0
2014-Dec-13 10:32N 53°45' W 000°16'0 0.0
2014-Dec-13 09:32N 53°45' W 000°16'0 0.0
2014-Dec-13 08:32N 53°45' W 000°16'0 0.0
2014-Dec-13 07:32N 53°45' W 000°16'0 0.0
2014-Dec-13 06:32N 53°45' W 000°16'0 0.0
2014-Dec-13 05:32N 53°45' W 000°16'0 0.0
2014-Dec-13 04:32N 53°45' W 000°16'0 0.0
2014-Dec-13 03:32N 53°45' W 000°16'0 0.0
2014-Dec-13 02:32N 53°45' W 000°16'0 0.0
2014-Dec-13 01:32N 53°45' W 000°16'0 0.0
2014-Dec-13 00:29N 53°45' W 000°16'0 0.0
2014-Dec-12 23:29N 53°45' W 000°16'0 0.0
2014-Dec-12 22:20N 53°45' W 000°16'0 0.0
2014-Dec-12 21:11N 53°45' W 000°16'0 0.0
2014-Dec-12 20:29N 53°45' W 000°16'0 0.0
2014-Dec-12 19:32N 53°45' W 000°16'0 0.0
2014-Dec-12 18:26N 53°45' W 000°16'0 0.0
2014-Dec-12 17:23N 53°45' W 000°16'0 0.0
2014-Dec-12 16:32N 53°45' W 000°16'0 0.0
2014-Dec-12 15:32N 53°45' W 000°16'0 0.0
2014-Dec-12 14:32N 53°45' W 000°16'0 0.0
2014-Dec-12 13:32N 53°45' W 000°16'0 0.0
2014-Dec-12 12:29N 53°45' W 000°16'0 0.0
2014-Dec-12 11:32N 53°45' W 000°16'0 0.0
2014-Dec-12 10:32N 53°45' W 000°16'0 0.0
2014-Dec-12 09:32N 53°45' W 000°16'  

Dump ship's entire track history